sensor_id;sensor_type;location;lat;lon;timestamp;temperature;humidity
70154;DHT22;57519;51.494;-2.626;2023-03-30T00:02:21;11.19;88.29
70154;DHT22;57519;51.494;-2.626;2023-03-30T00:04:50;11.14;88.48
70154;DHT22;57519;51.494;-2.626;2023-03-30T00:07:17;11.10;88.45
70154;DHT22;57519;51.494;-2.626;2023-03-30T00:09:43;11.03;87.94
70154;DHT22;57519;51.494;-2.626;2023-03-30T00:12:09;10.93;87.87
70154;DHT22;57519;51.494;-2.626;2023-03-30T00:14:35;10.79;87.58
70154;DHT22;57519;51.494;-2.626;2023-03-30T00:17:07;10.74;87.57
70154;DHT22;57519;51.494;-2.626;2023-03-30T00:19:33;10.64;87.72
70154;DHT22;57519;51.494;-2.626;2023-03-30T00:22:07;10.56;87.45
70154;DHT22;57519;51.494;-2.626;2023-03-30T00:24:33;10.48;87.44
70154;DHT22;57519;51.494;-2.626;2023-03-30T00:26:59;10.49;86.42
70154;DHT22;57519;51.494;-2.626;2023-03-30T00:29:24;10.41;87.15
70154;DHT22;57519;51.494;-2.626;2023-03-30T00:31:50;10.32;87.14
70154;DHT22;57519;51.494;-2.626;2023-03-30T00:34:16;10.29;86.74
70154;DHT22;57519;51.494;-2.626;2023-03-30T00:36:41;10.32;86.52
70154;DHT22;57519;51.494;-2.626;2023-03-30T00:39:07;10.28;86.40
70154;DHT22;57519;51.494;-2.626;2023-03-30T00:41:35;10.21;86.43
70154;DHT22;57519;51.494;-2.626;2023-03-30T00:44:07;10.18;86.95
70154;DHT22;57519;51.494;-2.626;2023-03-30T00:46:51;10.23;86.33
70154;DHT22;57519;51.494;-2.626;2023-03-30T00:49:17;10.29;86.07
70154;DHT22;57519;51.494;-2.626;2023-03-30T00:51:42;10.38;85.85
70154;DHT22;57519;51.494;-2.626;2023-03-30T00:54:11;10.53;84.69
70154;DHT22;57519;51.494;-2.626;2023-03-30T00:56:37;10.60;84.23
70154;DHT22;57519;51.494;-2.626;2023-03-30T00:59:03;10.64;84.04
70154;DHT22;57519;51.494;-2.626;2023-03-30T01:01:29;10.59;84.30
70154;DHT22;57519;51.494;-2.626;2023-03-30T01:04:04;10.69;83.71
70154;DHT22;57519;51.494;-2.626;2023-03-30T01:06:33;10.63;84.22
70154;DHT22;57519;51.494;-2.626;2023-03-30T01:08:58;10.66;84.21
70154;DHT22;57519;51.494;-2.626;2023-03-30T01:11:25;10.67;84.91
70154;DHT22;57519;51.494;-2.626;2023-03-30T01:13:58;10.64;85.16
70154;DHT22;57519;51.494;-2.626;2023-03-30T01:22:22;10.62;85.44
70154;DHT22;57519;51.494;-2.626;2023-03-30T01:25:13;10.64;85.15
70154;DHT22;57519;51.494;-2.626;2023-03-30T01:27:56;10.66;85.17
70154;DHT22;57519;51.494;-2.626;2023-03-30T01:40:06;10.77;84.71
70154;DHT22;57519;51.494;-2.626;2023-03-30T01:47:18;10.71;85.25
70154;DHT22;57519;51.494;-2.626;2023-03-30T01:55:13;10.60;85.76
70154;DHT22;57519;51.494;-2.626;2023-03-30T02:00:32;10.67;85.65
70154;DHT22;57519;51.494;-2.626;2023-03-30T02:03:06;10.71;85.14
70154;DHT22;57519;51.494;-2.626;2023-03-30T02:05:34;10.64;85.45
70154;DHT22;57519;51.494;-2.626;2023-03-30T02:08:21;10.64;85.48
70154;DHT22;57519;51.494;-2.626;2023-03-30T02:10:49;10.62;85.83
70154;DHT22;57519;51.494;-2.626;2023-03-30T02:13:16;10.62;86.17
70154;DHT22;57519;51.494;-2.626;2023-03-30T02:15:47;10.56;86.47
70154;DHT22;57519;51.494;-2.626;2023-03-30T02:18:14;10.59;86.45
70154;DHT22;57519;51.494;-2.626;2023-03-30T02:20:40;10.56;86.79
70154;DHT22;57519;51.494;-2.626;2023-03-30T02:23:07;10.55;87.44
70154;DHT22;57519;51.494;-2.626;2023-03-30T02:25:34;10.48;87.45
70154;DHT22;57519;51.494;-2.626;2023-03-30T02:28:02;10.49;87.33
70154;DHT22;57519;51.494;-2.626;2023-03-30T02:30:38;10.45;87.76
70154;DHT22;57519;51.494;-2.626;2023-03-30T02:33:07;10.45;87.83
70154;DHT22;57519;51.494;-2.626;2023-03-30T02:47:19;10.46;87.99
70154;DHT22;57519;51.494;-2.626;2023-03-30T02:52:40;10.45;87.71
70154;DHT22;57519;51.494;-2.626;2023-03-30T02:55:12;10.52;87.96
70154;DHT22;57519;51.494;-2.626;2023-03-30T02:57:48;10.49;88.25
70154;DHT22;57519;51.494;-2.626;2023-03-30T03:00:30;10.48;88.30
70154;DHT22;57519;51.494;-2.626;2023-03-30T03:03:06;10.49;88.37
70154;DHT22;57519;51.494;-2.626;2023-03-30T03:05:35;10.46;89.01
70154;DHT22;57519;51.494;-2.626;2023-03-30T03:08:01;10.46;88.96
70154;DHT22;57519;51.494;-2.626;2023-03-30T03:10:26;10.49;88.94
70154;DHT22;57519;51.494;-2.626;2023-03-30T03:12:51;10.42;89.15
70154;DHT22;57519;51.494;-2.626;2023-03-30T03:15:17;10.42;89.26
70154;DHT22;57519;51.494;-2.626;2023-03-30T03:17:43;10.46;89.23
70154;DHT22;57519;51.494;-2.626;2023-03-30T03:20:10;10.42;89.41
70154;DHT22;57519;51.494;-2.626;2023-03-30T03:22:35;10.43;89.58
70154;DHT22;57519;51.494;-2.626;2023-03-30T03:25:01;10.46;89.27
70154;DHT22;57519;51.494;-2.626;2023-03-30T03:27:27;10.45;89.14
70154;DHT22;57519;51.494;-2.626;2023-03-30T03:29:52;10.45;88.91
70154;DHT22;57519;51.494;-2.626;2023-03-30T03:32:17;10.48;89.03
70154;DHT22;57519;51.494;-2.626;2023-03-30T03:34:43;10.50;88.61
70154;DHT22;57519;51.494;-2.626;2023-03-30T03:37:11;10.53;89.01
70154;DHT22;57519;51.494;-2.626;2023-03-30T03:39:37;10.56;88.81
70154;DHT22;57519;51.494;-2.626;2023-03-30T03:42:04;10.56;88.65
70154;DHT22;57519;51.494;-2.626;2023-03-30T03:44:29;10.64;88.57
70154;DHT22;57519;51.494;-2.626;2023-03-30T03:46:55;10.59;88.62
70154;DHT22;57519;51.494;-2.626;2023-03-30T03:49:20;10.64;88.32
70154;DHT22;57519;51.494;-2.626;2023-03-30T03:51:46;10.69;88.23
70154;DHT22;57519;51.494;-2.626;2023-03-30T03:54:11;10.64;88.36
70154;DHT22;57519;51.494;-2.626;2023-03-30T03:56:37;10.64;88.51
70154;DHT22;57519;51.494;-2.626;2023-03-30T03:59:02;10.60;88.64
70154;DHT22;57519;51.494;-2.626;2023-03-30T04:01:29;10.62;88.80
70154;DHT22;57519;51.494;-2.626;2023-03-30T04:03:54;10.67;88.62
70154;DHT22;57519;51.494;-2.626;2023-03-30T04:06:20;10.64;89.17
70154;DHT22;57519;51.494;-2.626;2023-03-30T04:08:45;10.62;89.74
70154;DHT22;57519;51.494;-2.626;2023-03-30T04:11:11;10.55;90.43
70154;DHT22;57519;51.494;-2.626;2023-03-30T04:13:40;10.52;90.66
70154;DHT22;57519;51.494;-2.626;2023-03-30T04:16:06;10.50;91.16
70154;DHT22;57519;51.494;-2.626;2023-03-30T04:18:32;10.45;91.35
70154;DHT22;57519;51.494;-2.626;2023-03-30T04:21:05;10.41;91.51
70154;DHT22;57519;51.494;-2.626;2023-03-30T04:23:32;10.41;91.75
70154;DHT22;57519;51.494;-2.626;2023-03-30T04:26:03;10.43;91.89
70154;DHT22;57519;51.494;-2.626;2023-03-30T04:28:30;10.39;91.78
70154;DHT22;57519;51.494;-2.626;2023-03-30T04:31:07;10.36;91.89
70154;DHT22;57519;51.494;-2.626;2023-03-30T04:33:38;10.39;91.97
70154;DHT22;57519;51.494;-2.626;2023-03-30T04:36:10;10.39;92.01
70154;DHT22;57519;51.494;-2.626;2023-03-30T04:38:37;10.42;91.99
70154;DHT22;57519;51.494;-2.626;2023-03-30T04:41:03;10.39;92.19
70154;DHT22;57519;51.494;-2.626;2023-03-30T04:43:29;10.38;91.95
70154;DHT22;57519;51.494;-2.626;2023-03-30T04:45:55;10.38;91.94
70154;DHT22;57519;51.494;-2.626;2023-03-30T04:48:22;10.39;91.68
70154;DHT22;57519;51.494;-2.626;2023-03-30T04:50:49;10.38;91.66
70154;DHT22;57519;51.494;-2.626;2023-03-30T04:53:16;10.38;91.81
70154;DHT22;57519;51.494;-2.626;2023-03-30T04:55:57;10.29;91.99
70154;DHT22;57519;51.494;-2.626;2023-03-30T04:58:22;10.29;91.96
70154;DHT22;57519;51.494;-2.626;2023-03-30T05:00:48;10.32;91.90
70154;DHT22;57519;51.494;-2.626;2023-03-30T05:03:13;10.33;91.93
70154;DHT22;57519;51.494;-2.626;2023-03-30T05:05:38;10.36;91.92
70154;DHT22;57519;51.494;-2.626;2023-03-30T05:08:04;10.36;92.22
70154;DHT22;57519;51.494;-2.626;2023-03-30T05:10:29;10.33;92.44
70154;DHT22;57519;51.494;-2.626;2023-03-30T05:12:55;10.33;92.66
70154;DHT22;57519;51.494;-2.626;2023-03-30T05:15:21;10.32;92.86
70154;DHT22;57519;51.494;-2.626;2023-03-30T05:17:47;10.31;93.12
70154;DHT22;57519;51.494;-2.626;2023-03-30T05:20:12;10.26;93.12
70154;DHT22;57519;51.494;-2.626;2023-03-30T05:22:39;10.28;93.24
70154;DHT22;57519;51.494;-2.626;2023-03-30T05:25:05;10.25;93.34
70154;DHT22;57519;51.494;-2.626;2023-03-30T05:27:32;10.21;93.55
70154;DHT22;57519;51.494;-2.626;2023-03-30T05:29:57;10.19;93.66
70154;DHT22;57519;51.494;-2.626;2023-03-30T05:32:23;10.19;93.72
70154;DHT22;57519;51.494;-2.626;2023-03-30T05:34:48;10.21;93.43
70154;DHT22;57519;51.494;-2.626;2023-03-30T05:37:14;10.25;93.20
70154;DHT22;57519;51.494;-2.626;2023-03-30T05:39:40;10.21;93.44
70154;DHT22;57519;51.494;-2.626;2023-03-30T05:42:06;10.19;93.65
70154;DHT22;57519;51.494;-2.626;2023-03-30T05:44:32;10.22;93.79
70154;DHT22;57519;51.494;-2.626;2023-03-30T05:46:57;10.22;93.96
70154;DHT22;57519;51.494;-2.626;2023-03-30T05:49:24;10.21;94.18
70154;DHT22;57519;51.494;-2.626;2023-03-30T05:51:49;10.23;94.16
70154;DHT22;57519;51.494;-2.626;2023-03-30T05:54:15;10.22;94.27
70154;DHT22;57519;51.494;-2.626;2023-03-30T05:56:40;10.22;94.32
70154;DHT22;57519;51.494;-2.626;2023-03-30T05:59:07;10.18;94.45
70154;DHT22;57519;51.494;-2.626;2023-03-30T06:01:33;10.19;94.48
70154;DHT22;57519;51.494;-2.626;2023-03-30T06:03:59;10.21;94.46
70154;DHT22;57519;51.494;-2.626;2023-03-30T06:06:25;10.25;94.43
70154;DHT22;57519;51.494;-2.626;2023-03-30T06:08:51;10.22;94.38
70154;DHT22;57519;51.494;-2.626;2023-03-30T06:11:16;10.25;94.41
70154;DHT22;57519;51.494;-2.626;2023-03-30T06:13:42;10.21;94.42
70154;DHT22;57519;51.494;-2.626;2023-03-30T06:16:08;10.23;94.44
70154;DHT22;57519;51.494;-2.626;2023-03-30T06:18:33;10.25;94.19
70154;DHT22;57519;51.494;-2.626;2023-03-30T06:20:59;10.21;94.15
70154;DHT22;57519;51.494;-2.626;2023-03-30T06:23:27;10.25;94.31
70154;DHT22;57519;51.494;-2.626;2023-03-30T06:25:53;10.29;94.02
70154;DHT22;57519;51.494;-2.626;2023-03-30T06:28:20;10.22;94.22
70154;DHT22;57519;51.494;-2.626;2023-03-30T06:30:45;10.26;94.23
70154;DHT22;57519;51.494;-2.626;2023-03-30T06:33:16;10.31;94.30
70154;DHT22;57519;51.494;-2.626;2023-03-30T06:35:52;10.32;94.27
70154;DHT22;57519;51.494;-2.626;2023-03-30T06:38:20;10.36;94.09
70154;DHT22;57519;51.494;-2.626;2023-03-30T06:40:46;10.38;94.04
70154;DHT22;57519;51.494;-2.626;2023-03-30T06:43:23;10.45;93.96
70154;DHT22;57519;51.494;-2.626;2023-03-30T06:45:50;10.46;93.69
70154;DHT22;57519;51.494;-2.626;2023-03-30T06:48:16;10.43;93.70
70154;DHT22;57519;51.494;-2.626;2023-03-30T06:50:45;10.48;93.62
70154;DHT22;57519;51.494;-2.626;2023-03-30T06:53:11;10.53;93.50
70154;DHT22;57519;51.494;-2.626;2023-03-30T06:55:36;10.57;93.20
70154;DHT22;57519;51.494;-2.626;2023-03-30T06:58:02;10.73;92.52
70154;DHT22;57519;51.494;-2.626;2023-03-30T07:00:27;10.74;92.17
70154;DHT22;57519;51.494;-2.626;2023-03-30T07:02:54;10.80;92.19
70154;DHT22;57519;51.494;-2.626;2023-03-30T07:05:28;10.83;91.98
70154;DHT22;57519;51.494;-2.626;2023-03-30T07:11:16;10.90;92.00
70154;DHT22;57519;51.494;-2.626;2023-03-30T07:13:41;10.85;92.22
70154;DHT22;57519;51.494;-2.626;2023-03-30T07:16:07;10.83;92.12
70154;DHT22;57519;51.494;-2.626;2023-03-30T07:18:32;10.81;92.44
70154;DHT22;57519;51.494;-2.626;2023-03-30T07:20:58;10.87;92.56
70154;DHT22;57519;51.494;-2.626;2023-03-30T07:23:23;10.85;92.56
70154;DHT22;57519;51.494;-2.626;2023-03-30T07:25:49;10.81;92.64
70154;DHT22;57519;51.494;-2.626;2023-03-30T07:28:15;10.85;92.65
70154;DHT22;57519;51.494;-2.626;2023-03-30T07:30:41;10.83;92.83
70154;DHT22;57519;51.494;-2.626;2023-03-30T07:33:06;10.87;92.88
70154;DHT22;57519;51.494;-2.626;2023-03-30T07:35:32;10.91;92.35
70154;DHT22;57519;51.494;-2.626;2023-03-30T07:37:58;10.96;92.32
70154;DHT22;57519;51.494;-2.626;2023-03-30T07:40:23;10.90;92.23
70154;DHT22;57519;51.494;-2.626;2023-03-30T07:42:49;10.83;92.34
70154;DHT22;57519;51.494;-2.626;2023-03-30T07:45:14;10.87;92.42
70154;DHT22;57519;51.494;-2.626;2023-03-30T07:47:40;11.06;92.36
70154;DHT22;57519;51.494;-2.626;2023-03-30T07:50:07;11.38;92.04
70154;DHT22;57519;51.494;-2.626;2023-03-30T07:52:32;11.51;91.46
70154;DHT22;57519;51.494;-2.626;2023-03-30T07:54:58;11.58;91.41
70154;DHT22;57519;51.494;-2.626;2023-03-30T07:57:23;11.72;91.14
70154;DHT22;57519;51.494;-2.626;2023-03-30T07:59:49;11.73;91.14
70154;DHT22;57519;51.494;-2.626;2023-03-30T08:02:15;11.69;91.29
70154;DHT22;57519;51.494;-2.626;2023-03-30T08:04:41;11.65;90.92
70154;DHT22;57519;51.494;-2.626;2023-03-30T08:07:08;11.83;90.92
70154;DHT22;57519;51.494;-2.626;2023-03-30T08:09:34;11.77;90.42
70154;DHT22;57519;51.494;-2.626;2023-03-30T08:12:00;11.67;90.80
70154;DHT22;57519;51.494;-2.626;2023-03-30T08:14:26;11.65;91.19
70154;DHT22;57519;51.494;-2.626;2023-03-30T08:16:55;11.56;91.32
70154;DHT22;57519;51.494;-2.626;2023-03-30T08:19:23;11.66;91.45
70154;DHT22;57519;51.494;-2.626;2023-03-30T08:21:48;11.75;91.37
70154;DHT22;57519;51.494;-2.626;2023-03-30T08:24:14;11.84;90.90
70154;DHT22;57519;51.494;-2.626;2023-03-30T08:26:39;11.89;90.46
70154;DHT22;57519;51.494;-2.626;2023-03-30T08:29:06;12.04;90.50
70154;DHT22;57519;51.494;-2.626;2023-03-30T08:31:32;12.10;90.51
70154;DHT22;57519;51.494;-2.626;2023-03-30T08:33:59;12.25;90.18
70154;DHT22;57519;51.494;-2.626;2023-03-30T08:36:25;12.23;89.25
70154;DHT22;57519;51.494;-2.626;2023-03-30T08:38:53;12.34;89.24
70154;DHT22;57519;51.494;-2.626;2023-03-30T08:46:51;12.44;89.12
70154;DHT22;57519;51.494;-2.626;2023-03-30T08:49:18;12.49;88.95
70154;DHT22;57519;51.494;-2.626;2023-03-30T08:51:49;12.58;88.88
70154;DHT22;57519;51.494;-2.626;2023-03-30T08:54:18;12.45;88.74
70154;DHT22;57519;51.494;-2.626;2023-03-30T08:59:47;12.42;89.00
70154;DHT22;57519;51.494;-2.626;2023-03-30T09:02:50;12.58;88.33
70154;DHT22;57519;51.494;-2.626;2023-03-30T09:05:33;12.61;88.27
70154;DHT22;57519;51.494;-2.626;2023-03-30T09:10:30;12.83;87.43
70154;DHT22;57519;51.494;-2.626;2023-03-30T09:12:58;12.89;88.30
70154;DHT22;57519;51.494;-2.626;2023-03-30T09:15:30;13.04;86.99
70154;DHT22;57519;51.494;-2.626;2023-03-30T09:18:08;13.04;86.52
70154;DHT22;57519;51.494;-2.626;2023-03-30T09:20:39;13.04;84.47
70154;DHT22;57519;51.494;-2.626;2023-03-30T09:23:12;12.93;84.75
70154;DHT22;57519;51.494;-2.626;2023-03-30T09:25:42;13.07;85.02
70154;DHT22;57519;51.494;-2.626;2023-03-30T09:28:34;13.03;84.75
70154;DHT22;57519;51.494;-2.626;2023-03-30T09:31:17;12.97;84.77
70154;DHT22;57519;51.494;-2.626;2023-03-30T09:36:44;12.65;86.70
70154;DHT22;57519;51.494;-2.626;2023-03-30T09:39:17;12.48;87.79
70154;DHT22;57519;51.494;-2.626;2023-03-30T09:44:36;12.30;87.10
70154;DHT22;57519;51.494;-2.626;2023-03-30T09:47:29;12.49;88.27
70154;DHT22;57519;51.494;-2.626;2023-03-30T09:50:04;12.55;87.69
70154;DHT22;57519;51.494;-2.626;2023-03-30T09:52:32;12.53;87.41
70154;DHT22;57519;51.494;-2.626;2023-03-30T09:57:47;12.61;87.74
70154;DHT22;57519;51.494;-2.626;2023-03-30T10:00:31;12.76;88.05
70154;DHT22;57519;51.494;-2.626;2023-03-30T10:02:59;12.53;87.14
70154;DHT22;57519;51.494;-2.626;2023-03-30T10:05:25;12.53;87.14
70154;DHT22;57519;51.494;-2.626;2023-03-30T10:07:56;12.48;87.43
70154;DHT22;57519;51.494;-2.626;2023-03-30T10:13:00;12.75;87.67
70154;DHT22;57519;51.494;-2.626;2023-03-30T10:15:27;12.71;86.67
70154;DHT22;57519;51.494;-2.626;2023-03-30T10:17:55;13.07;85.95
70154;DHT22;57519;51.494;-2.626;2023-03-30T10:20:32;13.41;85.33
70154;DHT22;57519;51.494;-2.626;2023-03-30T10:23:12;13.64;84.26
70154;DHT22;57519;51.494;-2.626;2023-03-30T10:25:41;13.75;83.64
70154;DHT22;57519;51.494;-2.626;2023-03-30T10:28:25;13.69;83.53
70154;DHT22;57519;51.494;-2.626;2023-03-30T10:30:54;13.83;83.32
70154;DHT22;57519;51.494;-2.626;2023-03-30T10:33:21;13.92;82.38
70154;DHT22;57519;51.494;-2.626;2023-03-30T10:35:49;13.86;81.77
70154;DHT22;57519;51.494;-2.626;2023-03-30T10:38:18;14.03;81.75
70154;DHT22;57519;51.494;-2.626;2023-03-30T10:40:45;14.08;79.97
70154;DHT22;57519;51.494;-2.626;2023-03-30T10:43:14;14.17;80.69
70154;DHT22;57519;51.494;-2.626;2023-03-30T10:45:51;14.08;80.31
70154;DHT22;57519;51.494;-2.626;2023-03-30T10:51:27;14.05;79.60
70154;DHT22;57519;51.494;-2.626;2023-03-30T10:54:14;14.27;80.03
70154;DHT22;57519;51.494;-2.626;2023-03-30T10:56:47;14.27;79.73
70154;DHT22;57519;51.494;-2.626;2023-03-30T11:05:14;14.30;78.36
70154;DHT22;57519;51.494;-2.626;2023-03-30T11:08:00;14.61;79.05
70154;DHT22;57519;51.494;-2.626;2023-03-30T11:10:30;14.60;77.80
70154;DHT22;57519;51.494;-2.626;2023-03-30T11:13:10;14.89;79.11
70154;DHT22;57519;51.494;-2.626;2023-03-30T11:15:52;14.93;76.31
70154;DHT22;57519;51.494;-2.626;2023-03-30T11:18:25;15.06;76.43
70154;DHT22;57519;51.494;-2.626;2023-03-30T11:23:23;15.22;77.19
70154;DHT22;57519;51.494;-2.626;2023-03-30T11:26:01;15.53;77.52
70154;DHT22;57519;51.494;-2.626;2023-03-30T11:34:35;14.93;76.45
70154;DHT22;57519;51.494;-2.626;2023-03-30T11:37:16;14.75;76.76
70154;DHT22;57519;51.494;-2.626;2023-03-30T11:39:51;14.50;76.46
70154;DHT22;57519;51.494;-2.626;2023-03-30T11:42:29;14.64;77.15
70154;DHT22;57519;51.494;-2.626;2023-03-30T11:44:55;14.77;77.82
70154;DHT22;57519;51.494;-2.626;2023-03-30T11:47:39;14.88;77.15
70154;DHT22;57519;51.494;-2.626;2023-03-30T12:01:24;14.44;75.04
70154;DHT22;57519;51.494;-2.626;2023-03-30T12:04:02;14.41;74.57
70154;DHT22;57519;51.494;-2.626;2023-03-30T12:06:38;14.23;75.75
70154;DHT22;57519;51.494;-2.626;2023-03-30T12:09:22;14.23;75.99
70154;DHT22;57519;51.494;-2.626;2023-03-30T12:11:55;14.29;75.51
70154;DHT22;57519;51.494;-2.626;2023-03-30T12:14:41;14.26;74.49
70154;DHT22;57519;51.494;-2.626;2023-03-30T12:17:31;14.37;74.28
70154;DHT22;57519;51.494;-2.626;2023-03-30T12:25:16;14.72;73.74
70154;DHT22;57519;51.494;-2.626;2023-03-30T12:28:22;14.84;73.78
70154;DHT22;57519;51.494;-2.626;2023-03-30T12:30:54;15.05;74.30
70154;DHT22;57519;51.494;-2.626;2023-03-30T12:33:30;15.16;73.81
70154;DHT22;57519;51.494;-2.626;2023-03-30T12:36:00;15.23;72.14
70154;DHT22;57519;51.494;-2.626;2023-03-30T12:38:34;15.33;72.76
70154;DHT22;57519;51.494;-2.626;2023-03-30T12:41:14;15.50;72.24
70154;DHT22;57519;51.494;-2.626;2023-03-30T13:05:18;14.74;72.65
70154;DHT22;57519;51.494;-2.626;2023-03-30T13:07:49;14.93;73.75
70154;DHT22;57519;51.494;-2.626;2023-03-30T13:12:57;15.22;73.28
70154;DHT22;57519;51.494;-2.626;2023-03-30T13:18:24;14.95;72.61
70154;DHT22;57519;51.494;-2.626;2023-03-30T13:26:02;15.10;71.41
70154;DHT22;57519;51.494;-2.626;2023-03-30T13:28:47;15.06;71.43
70154;DHT22;57519;51.494;-2.626;2023-03-30T13:33:59;15.40;72.16
70154;DHT22;57519;51.494;-2.626;2023-03-30T13:36:29;15.23;72.48
70154;DHT22;57519;51.494;-2.626;2023-03-30T13:39:07;15.06;72.86
70154;DHT22;57519;51.494;-2.626;2023-03-30T13:49:50;15.06;72.68
70154;DHT22;57519;51.494;-2.626;2023-03-30T13:52:29;14.87;72.33
70154;DHT22;57519;51.494;-2.626;2023-03-30T13:54:56;15.05;72.32
70154;DHT22;57519;51.494;-2.626;2023-03-30T13:57:30;15.02;72.09
70154;DHT22;57519;51.494;-2.626;2023-03-30T14:00:19;14.91;71.71
70154;DHT22;57519;51.494;-2.626;2023-03-30T14:02:46;15.03;73.30
70154;DHT22;57519;51.494;-2.626;2023-03-30T14:05:15;15.09;77.25
70154;DHT22;57519;51.494;-2.626;2023-03-30T14:07:45;15.25;77.39
70154;DHT22;57519;51.494;-2.626;2023-03-30T14:12:40;14.96;77.91
70154;DHT22;57519;51.494;-2.626;2023-03-30T14:17:46;14.48;80.56
70154;DHT22;57519;51.494;-2.626;2023-03-30T14:22:59;14.48;80.28
70154;DHT22;57519;51.494;-2.626;2023-03-30T14:25:31;14.48;80.09
70154;DHT22;57519;51.494;-2.626;2023-03-30T14:28:09;14.51;81.27
70154;DHT22;57519;51.494;-2.626;2023-03-30T14:30:57;14.40;81.83
70154;DHT22;57519;51.494;-2.626;2023-03-30T14:33:23;14.41;81.77
70154;DHT22;57519;51.494;-2.626;2023-03-30T14:35:54;14.47;83.08
70154;DHT22;57519;51.494;-2.626;2023-03-30T14:40:52;14.96;81.68
70154;DHT22;57519;51.494;-2.626;2023-03-30T14:43:26;14.71;81.00
70154;DHT22;57519;51.494;-2.626;2023-03-30T14:45:56;14.47;79.92
70154;DHT22;57519;51.494;-2.626;2023-03-30T14:48:30;14.50;80.79
70154;DHT22;57519;51.494;-2.626;2023-03-30T14:51:02;14.50;80.37
70154;DHT22;57519;51.494;-2.626;2023-03-30T14:53:29;14.59;79.95
70154;DHT22;57519;51.494;-2.626;2023-03-30T14:55:57;14.67;80.36
70154;DHT22;57519;51.494;-2.626;2023-03-30T14:58:25;14.61;81.26
70154;DHT22;57519;51.494;-2.626;2023-03-30T15:00:59;14.45;79.87
70154;DHT22;57519;51.494;-2.626;2023-03-30T15:03:29;14.59;79.16
70154;DHT22;57519;51.494;-2.626;2023-03-30T15:05:59;14.85;79.84
70154;DHT22;57519;51.494;-2.626;2023-03-30T15:08:27;14.70;78.66
70154;DHT22;57519;51.494;-2.626;2023-03-30T15:10:56;14.61;80.02
70154;DHT22;57519;51.494;-2.626;2023-03-30T15:13:31;14.37;81.91
70154;DHT22;57519;51.494;-2.626;2023-03-30T15:15:59;14.16;82.43
70154;DHT22;57519;51.494;-2.626;2023-03-30T15:18:26;13.92;83.31
70154;DHT22;57519;51.494;-2.626;2023-03-30T15:20:53;13.82;84.97
70154;DHT22;57519;51.494;-2.626;2023-03-30T15:23:19;13.78;85.62
70154;DHT22;57519;51.494;-2.626;2023-03-30T15:25:46;14.23;86.42
70154;DHT22;57519;51.494;-2.626;2023-03-30T15:28:21;14.67;86.26
70154;DHT22;57519;51.494;-2.626;2023-03-30T15:30:50;14.71;85.70
70154;DHT22;57519;51.494;-2.626;2023-03-30T15:33:22;14.61;85.35
70154;DHT22;57519;51.494;-2.626;2023-03-30T15:35:51;14.48;83.76
70154;DHT22;57519;51.494;-2.626;2023-03-30T15:38:26;14.60;84.17
70154;DHT22;57519;51.494;-2.626;2023-03-30T15:40:52;14.65;83.63
70154;DHT22;57519;51.494;-2.626;2023-03-30T15:43:27;14.65;83.59
70154;DHT22;57519;51.494;-2.626;2023-03-30T15:46:04;14.60;82.69
70154;DHT22;57519;51.494;-2.626;2023-03-30T15:48:51;14.51;83.15
70154;DHT22;57519;51.494;-2.626;2023-03-30T15:51:25;14.57;82.97
70154;DHT22;57519;51.494;-2.626;2023-03-30T15:57:20;14.64;82.81
70154;DHT22;57519;51.494;-2.626;2023-03-30T15:59:52;14.64;83.65
70154;DHT22;57519;51.494;-2.626;2023-03-30T16:02:56;14.82;83.27
70154;DHT22;57519;51.494;-2.626;2023-03-30T16:05:20;14.93;83.52
70154;DHT22;57519;51.494;-2.626;2023-03-30T16:07:47;14.85;82.84
70154;DHT22;57519;51.494;-2.626;2023-03-30T16:10:13;14.77;82.60
70154;DHT22;57519;51.494;-2.626;2023-03-30T16:12:44;14.67;82.93
70154;DHT22;57519;51.494;-2.626;2023-03-30T16:15:15;14.61;82.94
70154;DHT22;57519;51.494;-2.626;2023-03-30T16:17:41;14.47;83.67
70154;DHT22;57519;51.494;-2.626;2023-03-30T16:20:27;14.57;84.56
70154;DHT22;57519;51.494;-2.626;2023-03-30T16:22:53;14.53;85.09
70154;DHT22;57519;51.494;-2.626;2023-03-30T16:25:21;14.43;84.73
70154;DHT22;57519;51.494;-2.626;2023-03-30T16:27:47;14.34;84.72
70154;DHT22;57519;51.494;-2.626;2023-03-30T16:30:24;14.23;85.41
70154;DHT22;57519;51.494;-2.626;2023-03-30T16:32:51;14.16;85.33
70154;DHT22;57519;51.494;-2.626;2023-03-30T16:35:24;13.98;85.24
70154;DHT22;57519;51.494;-2.626;2023-03-30T16:37:49;13.95;85.61
70154;DHT22;57519;51.494;-2.626;2023-03-30T16:40:27;14.02;85.74
70154;DHT22;57519;51.494;-2.626;2023-03-30T16:42:54;14.12;84.96
70154;DHT22;57519;51.494;-2.626;2023-03-30T16:45:19;14.08;85.37
70154;DHT22;57519;51.494;-2.626;2023-03-30T16:47:45;14.23;85.30
70154;DHT22;57519;51.494;-2.626;2023-03-30T16:52:58;14.17;84.07
70154;DHT22;57519;51.494;-2.626;2023-03-30T16:55:24;14.14;83.89
70154;DHT22;57519;51.494;-2.626;2023-03-30T16:57:49;14.16;83.41
70154;DHT22;57519;51.494;-2.626;2023-03-30T17:00:25;14.03;82.63
70154;DHT22;57519;51.494;-2.626;2023-03-30T17:02:51;13.89;82.69
70154;DHT22;57519;51.494;-2.626;2023-03-30T17:05:17;13.87;83.11
70154;DHT22;57519;51.494;-2.626;2023-03-30T17:07:43;13.82;82.69
70154;DHT22;57519;51.494;-2.626;2023-03-30T17:12:41;13.68;82.79
70154;DHT22;57519;51.494;-2.626;2023-03-30T17:15:09;13.69;82.36
70154;DHT22;57519;51.494;-2.626;2023-03-30T17:17:34;13.44;82.67
70154;DHT22;57519;51.494;-2.626;2023-03-30T17:20:35;13.40;83.01
70154;DHT22;57519;51.494;-2.626;2023-03-30T17:22:57;13.36;83.08
70154;DHT22;57519;51.494;-2.626;2023-03-30T17:25:22;13.27;83.38
70154;DHT22;57519;51.494;-2.626;2023-03-30T17:27:51;13.13;82.68
70154;DHT22;57519;51.494;-2.626;2023-03-30T17:30:26;13.11;82.96
70154;DHT22;57519;51.494;-2.626;2023-03-30T17:32:53;13.14;83.27
70154;DHT22;57519;51.494;-2.626;2023-03-30T17:35:22;13.09;83.19
70154;DHT22;57519;51.494;-2.626;2023-03-30T17:37:55;12.96;83.22
70154;DHT22;57519;51.494;-2.626;2023-03-30T17:40:28;12.96;83.41
70154;DHT22;57519;51.494;-2.626;2023-03-30T17:42:55;12.82;83.94
70154;DHT22;57519;51.494;-2.626;2023-03-30T17:45:24;12.69;84.48
70154;DHT22;57519;51.494;-2.626;2023-03-30T17:47:49;12.59;84.74
70154;DHT22;57519;51.494;-2.626;2023-03-30T17:50:25;12.44;85.11
70154;DHT22;57519;51.494;-2.626;2023-03-30T17:52:52;12.45;85.51
70154;DHT22;57519;51.494;-2.626;2023-03-30T17:55:19;12.37;85.41
70154;DHT22;57519;51.494;-2.626;2023-03-30T17:57:45;12.34;85.18
70154;DHT22;57519;51.494;-2.626;2023-03-30T18:00:17;12.32;85.61
70154;DHT22;57519;51.494;-2.626;2023-03-30T18:02:43;12.32;85.20
70154;DHT22;57519;51.494;-2.626;2023-03-30T18:05:09;12.31;84.96
70154;DHT22;57519;51.494;-2.626;2023-03-30T18:07:36;12.32;84.96
70154;DHT22;57519;51.494;-2.626;2023-03-30T18:12:42;12.25;84.92
70154;DHT22;57519;51.494;-2.626;2023-03-30T18:15:09;12.20;85.12
70154;DHT22;57519;51.494;-2.626;2023-03-30T18:17:34;12.20;85.65
70154;DHT22;57519;51.494;-2.626;2023-03-30T18:20:00;12.23;85.17